Time;durP1;ratioP1;P1;durP2;ratioP2;P2;SDS_P1;SDS_P2;PMS_P1;PMS_P2;Temp;Humidity;BMP_temperature;BMP_pressure;BME280_temperature;BME280_humidity;BME280_pressure;Samples;Min_cycle;Max_cycle;Signal;HPM_P1;HPM_P2
2022/08/21 00:00:20;;;;;;;13.25;7.63;;;16.80;99.90;;;;;;5002747;28;20460;-56
2022/08/21 00:03:01;;;;;;;13.35;7.88;;;16.80;99.90;;;;;;5003187;28;20038;-57
2022/08/21 00:05:28;;;;;;;14.80;7.22;;;16.80;99.90;;;;;;5002496;28;20050;-56
2022/08/21 00:07:54;;;;;;;13.63;8.30;;;16.70;99.90;;;;;;5002928;28;20038;-56
2022/08/21 00:10:20;;;;;;;13.95;7.78;;;16.70;99.90;;;;;;5002693;28;20463;-56
2022/08/21 00:12:46;;;;;;;13.80;7.82;;;16.70;99.90;;;;;;4981942;28;20433;-56
2022/08/21 00:15:16;;;;;;;16.02;7.68;;;16.70;99.90;;;;;;4983904;28;20058;-56
2022/08/21 00:17:41;;;;;;;15.63;8.02;;;16.60;99.90;;;;;;4982046;28;20062;-57
2022/08/21 00:20:11;;;;;;;14.77;8.70;;;16.60;99.90;;;;;;4983777;28;20046;-57
2022/08/21 00:22:37;;;;;;;14.50;8.15;;;16.60;99.90;;;;;;4981966;28;20456;-59
2022/08/21 00:25:05;;;;;;;13.15;7.88;;;16.60;99.90;;;;;;4983052;28;20124;-56
2022/08/21 00:27:31;;;;;;;14.70;7.65;;;16.50;99.90;;;;;;4983820;28;20126;-56
2022/08/21 00:29:57;;;;;;;13.13;8.43;;;16.40;99.90;;;;;;4982175;28;20057;-56
2022/08/21 00:32:25;;;;;;;17.42;10.00;;;16.40;99.90;;;;;;4983249;28;20034;-56
2022/08/21 00:34:51;;;;;;;16.10;9.52;;;16.30;99.90;;;;;;4982945;28;20050;-56
2022/08/21 00:37:17;;;;;;;16.25;9.70;;;16.30;99.90;;;;;;4983393;28;20106;-56
2022/08/21 00:39:43;;;;;;;13.85;9.82;;;16.20;99.90;;;;;;4982292;28;20513;-56
2022/08/21 00:42:14;;;;;;;16.13;10.05;;;16.10;99.90;;;;;;4983499;28;20053;-56
2022/08/21 00:44:42;;;;;;;17.48;10.68;;;16.10;99.90;;;;;;4983051;28;20628;-56
2022/08/21 00:47:08;;;;;;;14.63;10.07;;;16.00;99.90;;;;;;4982810;28;20054;-56
2022/08/21 00:49:33;;;;;;;19.63;10.65;;;16.00;99.90;;;;;;4982519;28;20046;-56
2022/08/21 00:52:01;;;;;;;17.05;10.68;;;15.90;99.90;;;;;;4981977;28;20132;-57
2022/08/21 00:54:29;;;;;;;13.50;9.32;;;15.90;99.90;;;;;;4981700;28;20030;-56
2022/08/21 00:57:02;;;;;;;15.60;9.95;;;15.90;99.90;;;;;;4982844;28;20214;-56
2022/08/21 00:59:32;;;;;;;14.35;9.75;;;15.90;99.90;;;;;;4983017;28;20085;-56
2022/08/21 01:01:57;;;;;;;15.52;9.40;;;15.90;99.90;;;;;;4982288;28;20050;-56
2022/08/21 01:04:23;;;;;;;14.50;9.90;;;15.80;99.90;;;;;;4982627;28;20038;-56
2022/08/21 01:06:51;;;;;;;15.57;10.00;;;15.90;99.90;;;;;;4982175;28;20046;-56
2022/08/21 01:09:18;;;;;;;14.00;8.63;;;15.90;99.90;;;;;;4963536;28;20051;-56
2022/08/21 01:11:45;;;;;;;15.10;9.48;;;15.80;99.90;;;;;;4967791;28;20073;-56
2022/08/21 01:14:12;;;;;;;13.55;8.80;;;15.80;99.90;;;;;;4982744;28;20144;-56
2022/08/21 01:16:39;;;;;;;16.02;8.32;;;15.80;99.90;;;;;;4982160;28;20046;-56
2022/08/21 01:19:08;;;;;;;14.05;8.18;;;15.80;99.90;;;;;;4982748;28;20065;-56
2022/08/21 01:21:34;;;;;;;15.13;8.60;;;15.90;99.90;;;;;;4982843;28;20520;-56
2022/08/21 01:24:00;;;;;;;13.10;8.70;;;15.80;99.90;;;;;;4982154;28;20082;-57
2022/08/21 01:26:30;;;;;;;14.95;8.65;;;15.80;99.90;;;;;;4964521;28;20136;-57
2022/08/21 01:29:28;;;;;;;15.05;8.57;;;15.90;99.90;;;;;;4982518;28;20038;-56
2022/08/21 01:31:54;;;;;;;16.02;9.05;;;15.80;99.90;;;;;;4982295;28;20057;-56
2022/08/21 01:34:19;;;;;;;13.73;8.93;;;15.70;99.90;;;;;;4982691;28;20508;-56
2022/08/21 01:36:46;;;;;;;13.88;10.07;;;15.70;99.90;;;;;;4982161;28;20065;-56
2022/08/21 01:39:12;;;;;;;15.30;8.48;;;15.70;99.90;;;;;;4981685;28;20054;-56
2022/08/21 01:41:38;;;;;;;16.60;9.75;;;15.60;99.90;;;;;;4964922;28;20063;-56
2022/08/21 01:44:04;;;;;;;12.43;8.68;;;15.60;99.90;;;;;;4985722;28;20053;-56
2022/08/21 01:46:30;;;;;;;13.80;9.30;;;15.70;99.90;;;;;;4986190;28;20046;-56
2022/08/21 01:48:56;;;;;;;13.35;8.85;;;15.70;99.90;;;;;;4986485;28;20478;-56
2022/08/21 01:51:21;;;;;;;15.20;9.07;;;15.60;99.90;;;;;;4986290;28;20052;-56
2022/08/21 01:53:47;;;;;;;13.73;8.95;;;15.60;99.90;;;;;;4985463;28;20149;-56
2022/08/21 01:56:15;;;;;;;14.30;8.90;;;15.60;99.90;;;;;;4985619;28;20050;-56
2022/08/21 01:58:42;;;;;;;15.23;9.32;;;15.60;99.90;;;;;;4968692;28;20042;-56
2022/08/21 02:01:08;;;;;;;14.85;8.20;;;15.50;99.90;;;;;;4985732;28;20094;-56
2022/08/21 02:03:34;;;;;;;14.13;8.63;;;15.60;99.90;;;;;;4968747;28;20060;-56
2022/08/21 02:06:00;;;;;;;14.68;8.77;;;15.50;99.90;;;;;;4992934;28;20045;-56
2022/08/21 02:08:28;;;;;;;14.05;9.00;;;15.40;99.90;;;;;;5005382;28;20519;-57
2022/08/21 02:10:53;;;;;;;12.52;8.15;;;15.40;99.90;;;;;;5004962;28;20598;-56
2022/08/21 02:13:19;;;;;;;13.68;9.10;;;15.60;99.90;;;;;;5005512;28;20050;-56
2022/08/21 02:15:45;;;;;;;14.43;8.63;;;15.40;99.90;;;;;;5005004;28;20485;-57
2022/08/21 02:18:11;;;;;;;12.98;8.48;;;15.30;99.90;;;;;;5005625;28;20141;-55
2022/08/21 02:20:42;;;;;;;15.27;8.13;;;15.20;99.90;;;;;;5004750;28;20038;-58
2022/08/21 02:23:09;;;;;;;13.68;8.43;;;15.20;99.90;;;;;;5005414;28;20575;-56
2022/08/21 02:25:35;;;;;;;13.43;8.82;;;15.20;99.90;;;;;;5005006;28;20693;-57
2022/08/21 02:28:07;;;;;;;11.23;7.70;;;15.20;99.90;;;;;;5005161;28;20046;-56
2022/08/21 02:30:37;;;;;;;10.93;7.40;;;15.30;99.90;;;;;;4987915;28;20042;-56
2022/08/21 02:33:04;;;;;;;12.23;7.88;;;15.20;99.90;;;;;;5005865;28;20691;-56
2022/08/21 02:35:30;;;;;;;11.10;7.72;;;15.20;99.90;;;;;;4987332;28;20038;-56
2022/08/21 02:37:59;;;;;;;12.38;7.35;;;15.30;99.90;;;;;;5004962;28;20037;-56
2022/08/21 02:40:28;;;;;;;11.25;7.25;;;15.10;99.90;;;;;;4986739;28;20176;-56
2022/08/21 02:42:54;;;;;;;12.35;7.40;;;15.20;99.90;;;;;;5004747;28;20042;-56
2022/08/21 02:45:20;;;;;;;13.30;6.93;;;15.10;99.90;;;;;;5004822;28;20610;-57
2022/08/21 02:47:57;;;;;;;9.77;7.22;;;15.10;99.90;;;;;;5004946;28;20042;-56
2022/08/21 02:50:35;;;;;;;11.90;7.07;;;15.10;99.90;;;;;;5004104;28;20099;-56
2022/08/21 02:53:01;;;;;;;9.82;6.63;;;15.10;99.90;;;;;;5004904;28;20112;-56
2022/08/21 02:55:29;;;;;;;12.82;6.53;;;15.00;99.90;;;;;;5003784;28;20042;-56
2022/08/21 02:57:56;;;;;;;10.07;6.70;;;15.10;99.90;;;;;;5003933;28;20851;-56
2022/08/21 03:00:23;;;;;;;13.02;7.32;;;15.00;99.90;;;;;;5004632;28;20042;-57
2022/08/21 03:02:50;;;;;;;10.52;6.40;;;14.90;99.90;;;;;;5004634;28;20429;-56
2022/08/21 03:05:17;;;;;;;12.80;6.78;;;14.90;99.90;;;;;;5003285;28;20058;-56
2022/08/21 03:07:44;;;;;;;13.15;6.53;;;14.90;99.90;;;;;;5004161;28;20042;-56
2022/08/21 03:10:11;;;;;;;9.43;6.22;;;15.00;99.90;;;;;;5003562;28;20057;-56
2022/08/21 03:12:36;;;;;;;10.55;6.47;;;14.90;99.90;;;;;;4986132;28;20050;-58
2022/08/21 03:15:06;;;;;;;10.95;5.97;;;14.90;99.90;;;;;;5004486;28;20057;-56
2022/08/21 03:17:32;;;;;;;10.48;6.40;;;15.00;99.90;;;;;;4987172;28;20045;-56
2022/08/21 03:19:58;;;;;;;10.38;6.15;;;15.00;99.90;;;;;;5003648;28;20131;-56
2022/08/21 03:22:24;;;;;;;9.55;6.13;;;15.00;99.90;;;;;;5004189;28;20041;-56
2022/08/21 03:24:51;;;;;;;14.27;7.28;;;15.00;99.90;;;;;;5003324;28;20056;-56
2022/08/21 03:27:17;;;;;;;8.82;6.38;;;14.90;99.90;;;;;;5004539;28;20052;-58
2022/08/21 03:29:42;;;;;;;12.45;6.63;;;14.90;99.90;;;;;;4985815;28;20505;-56
2022/08/21 03:32:10;;;;;;;12.18;6.80;;;14.90;99.90;;;;;;4986857;28;20128;-56
2022/08/21 03:34:37;;;;;;;13.63;6.97;;;14.90;99.90;;;;;;5003659;28;20045;-57
2022/08/21 03:37:07;;;;;;;9.75;6.30;;;14.90;99.90;;;;;;5003941;28;20053;-56
2022/08/21 03:39:33;;;;;;;12.45;6.60;;;14.90;99.90;;;;;;5003584;28;20060;-56
2022/08/21 03:41:59;;;;;;;11.10;6.88;;;14.90;99.90;;;;;;5003641;28;20085;-56
2022/08/21 03:44:28;;;;;;;9.63;6.13;;;15.00;99.90;;;;;;5003826;28;20057;-56
2022/08/21 03:46:55;;;;;;;12.52;6.70;;;14.90;99.90;;;;;;4986086;28;20480;-56
2022/08/21 03:49:20;;;;;;;11.90;6.85;;;15.00;99.90;;;;;;5003637;28;20128;-56
2022/08/21 03:51:46;;;;;;;12.32;6.57;;;14.90;99.90;;;;;;5003499;28;20457;-56
2022/08/21 03:54:12;;;;;;;12.65;7.03;;;14.90;99.90;;;;;;4984660;28;20144;-56
2022/08/21 03:56:39;;;;;;;9.90;7.10;;;14.90;99.90;;;;;;4985767;28;20041;-56
2022/08/21 03:59:05;;;;;;;13.70;6.95;;;14.90;99.90;;;;;;5003840;28;20050;-57
2022/08/21 04:01:31;;;;;;;13.27;7.45;;;14.90;99.90;;;;;;5003338;28;20034;-56
2022/08/21 04:03:57;;;;;;;14.32;7.45;;;14.90;99.90;;;;;;5003599;28;20061;-56
2022/08/21 04:06:22;;;;;;;14.38;8.25;;;14.90;99.90;;;;;;5001826;28;20045;-56
2022/08/21 04:08:48;;;;;;;13.23;7.70;;;14.80;99.90;;;;;;5002362;28;20046;-56
2022/08/21 04:11:14;;;;;;;11.95;7.90;;;14.80;99.90;;;;;;5002546;28;20088;-57
2022/08/21 04:13:41;;;;;;;11.80;7.53;;;14.80;99.90;;;;;;5003109;28;20130;-56
2022/08/21 04:16:07;;;;;;;13.05;7.50;;;14.80;99.90;;;;;;5003361;28;20129;-56
2022/08/21 04:18:33;;;;;;;15.88;7.90;;;14.80;99.90;;;;;;5002733;28;20415;-56
2022/08/21 04:21:01;;;;;;;10.80;7.68;;;14.80;99.90;;;;;;5003298;28;20085;-56
2022/08/21 04:23:27;;;;;;;14.05;7.78;;;14.70;99.90;;;;;;5002318;28;20046;-56
2022/08/21 04:25:54;;;;;;;11.43;7.43;;;14.70;99.90;;;;;;5002248;28;20030;-56
2022/08/21 04:28:20;;;;;;;13.65;8.00;;;14.70;99.90;;;;;;5002958;28;20425;-56
2022/08/21 04:30:46;;;;;;;16.17;7.57;;;14.70;99.90;;;;;;5002855;28;20053;-56
2022/08/21 04:33:12;;;;;;;14.85;8.63;;;14.70;99.90;;;;;;4985133;28;20067;-56
2022/08/21 04:35:38;;;;;;;14.13;8.40;;;14.70;99.90;;;;;;4984325;28;20092;-56
2022/08/21 04:38:03;;;;;;;14.65;8.18;;;14.70;99.90;;;;;;5002216;28;20046;-57
2022/08/21 04:40:29;;;;;;;16.30;9.20;;;14.70;99.90;;;;;;5003453;28;20128;-56
2022/08/21 04:43:02;;;;;;;12.43;8.60;;;14.70;99.90;;;;;;5001823;28;20628;-57
2022/08/21 04:45:33;;;;;;;14.00;8.38;;;14.70;99.90;;;;;;5002592;28;20052;-56
2022/08/21 04:48:02;;;;;;;12.35;8.57;;;14.60;99.90;;;;;;5002592;28;20042;-57
2022/08/21 04:51:12;;;;;;;11.85;8.20;;;14.60;99.90;;;;;;5002375;28;20096;-56
2022/08/21 04:53:50;;;;;;;11.68;8.43;;;14.60;99.90;;;;;;4920708;29;20051;-57
2022/08/21 04:56:39;;;;;;;14.20;8.55;;;14.60;99.90;;;;;;4997634;28;20080;-57
2022/08/21 04:59:11;;;;;;;14.98;8.60;;;14.60;99.90;;;;;;5002126;28;20057;-60
2022/08/21 05:01:38;;;;;;;12.75;8.13;;;14.80;99.90;;;;;;5002528;28;20121;-59
2022/08/21 05:04:07;;;;;;;11.98;7.65;;;14.80;99.90;;;;;;5002485;28;20046;-57
2022/08/21 05:06:36;;;;;;;11.88;7.70;;;14.80;99.90;;;;;;5001846;28;20054;-56
2022/08/21 05:09:03;;;;;;;11.35;7.78;;;14.80;99.90;;;;;;5002137;28;20042;-56
2022/08/21 05:11:31;;;;;;;13.38;7.38;;;14.90;99.90;;;;;;5002279;28;20069;-56
2022/08/21 05:13:57;;;;;;;12.43;7.53;;;14.90;99.90;;;;;;5001904;28;20547;-56
2022/08/21 05:16:22;;;;;;;12.45;8.20;;;15.00;99.90;;;;;;5001849;28;20049;-57
2022/08/21 05:18:48;;;;;;;11.00;7.53;;;15.00;99.90;;;;;;5002139;28;20038;-56
2022/08/21 05:21:14;;;;;;;11.73;7.30;;;15.00;99.90;;;;;;5001759;28;20045;-55
2022/08/21 05:23:39;;;;;;;11.85;7.30;;;15.00;99.90;;;;;;5001480;28;20073;-57
2022/08/21 05:26:05;;;;;;;14.20;8.00;;;15.10;99.90;;;;;;5002636;28;20045;-58
2022/08/21 05:28:31;;;;;;;13.75;7.90;;;15.10;99.90;;;;;;5002292;28;20113;-57
2022/08/21 05:30:58;;;;;;;13.65;7.63;;;15.10;99.90;;;;;;5001618;28;20046;-56
2022/08/21 05:33:23;;;;;;;13.68;7.80;;;15.20;99.90;;;;;;5001776;28;20133;-57
2022/08/21 05:35:51;;;;;;;10.80;7.80;;;15.20;99.90;;;;;;4984244;28;20126;-56
2022/08/21 05:38:18;;;;;;;12.73;7.82;;;15.20;99.90;;;;;;5000735;28;20131;-57
2022/08/21 05:40:45;;;;;;;12.75;7.63;;;15.40;99.90;;;;;;5002103;28;20128;-57
2022/08/21 05:43:10;;;;;;;8.93;6.32;;;15.80;99.90;;;;;;5001731;28;20065;-56
2022/08/21 05:45:36;;;;;;;10.13;6.40;;;16.10;99.90;;;;;;4984497;28;20046;-57
2022/08/21 05:48:17;;;;;;;8.20;6.30;;;16.40;99.90;;;;;;5001476;28;20092;-56
2022/08/21 05:50:45;;;;;;;10.05;6.20;;;16.60;99.90;;;;;;4984173;28;20050;-57
2022/08/21 05:53:12;;;;;;;9.80;6.47;;;16.90;99.90;;;;;;5000469;28;20054;-56
2022/08/21 05:55:38;;;;;;;9.32;6.10;;;17.00;99.90;;;;;;5001878;28;20483;-57
2022/08/21 05:58:04;;;;;;;9.60;5.63;;;17.10;99.90;;;;;;5001957;28;20038;-55
2022/08/21 06:00:31;;;;;;;10.35;5.65;;;17.20;99.90;;;;;;5002108;28;20054;-57
2022/08/21 06:02:57;;;;;;;8.23;5.60;;;17.20;99.90;;;;;;5001465;28;20049;-55
2022/08/21 06:05:23;;;;;;;8.27;5.30;;;17.60;99.90;;;;;;5001474;28;20053;-56
2022/08/21 06:07:49;;;;;;;12.25;5.70;;;17.80;99.90;;;;;;5000475;28;20084;-55
2022/08/21 06:10:14;;;;;;;10.52;5.10;;;17.80;99.90;;;;;;4983755;28;20058;-56
2022/08/21 06:12:40;;;;;;;12.68;5.25;;;17.60;99.90;;;;;;4983529;28;20046;-56
2022/08/21 06:15:06;;;;;;;9.95;5.10;;;17.90;99.90;;;;;;5001743;28;20493;-57
2022/08/21 06:17:32;;;;;;;10.85;5.38;;;17.70;99.90;;;;;;5001611;28;20045;-57
2022/08/21 06:19:57;;;;;;;8.10;5.00;;;18.30;99.90;;;;;;5001549;28;20046;-55
2022/08/21 06:22:23;;;;;;;7.30;4.65;;;18.00;99.90;;;;;;5001645;28;20074;-57
2022/08/21 06:24:49;;;;;;;10.35;5.00;;;18.10;99.90;;;;;;5000866;28;20214;-57
2022/08/21 06:27:15;;;;;;;9.93;4.90;;;18.00;99.90;;;;;;5001358;28;20050;-56
2022/08/21 06:29:41;;;;;;;8.85;5.10;;;18.40;99.90;;;;;;4985398;28;20045;-57
2022/08/21 06:32:10;;;;;;;12.63;5.07;;;18.50;99.90;;;;;;4987741;28;20068;-57
2022/08/21 06:34:40;;;;;;;8.48;4.78;;;18.50;99.90;;;;;;5004211;28;20077;-56
2022/08/21 06:37:06;;;;;;;10.77;5.65;;;18.30;99.90;;;;;;5004880;28;20038;-55
2022/08/21 06:39:33;;;;;;;9.80;5.38;;;18.20;99.90;;;;;;5004759;28;20038;-56
2022/08/21 06:41:59;;;;;;;7.65;5.07;;;18.30;99.90;;;;;;5004469;28;20050;-57
2022/08/21 06:44:25;;;;;;;8.93;5.60;;;18.50;99.90;;;;;;4987333;28;20104;-56
2022/08/21 06:46:50;;;;;;;10.40;5.22;;;18.30;99.90;;;;;;5004583;28;20041;-56
2022/08/21 06:49:16;;;;;;;12.68;6.20;;;18.60;99.90;;;;;;5005085;28;20738;-56
2022/08/21 06:51:42;;;;;;;9.13;5.55;;;18.60;99.90;;;;;;5003965;28;20053;-55
2022/08/21 06:54:08;;;;;;;8.75;5.30;;;18.70;99.90;;;;;;5003874;28;20068;-57
2022/08/21 06:56:36;;;;;;;9.48;5.25;;;18.90;99.90;;;;;;5005105;28;20104;-57
2022/08/21 06:59:02;;;;;;;12.20;5.50;;;18.90;99.90;;;;;;4986508;28;20467;-55
2022/08/21 07:01:28;;;;;;;11.55;5.78;;;18.90;99.90;;;;;;5004543;28;20130;-56
2022/08/21 07:03:53;;;;;;;9.32;5.32;;;18.90;99.90;;;;;;5004239;28;20132;-56
2022/08/21 07:06:19;;;;;;;10.88;5.25;;;19.10;99.90;;;;;;5004007;28;20042;-57
2022/08/21 07:08:45;;;;;;;9.77;5.28;;;19.50;99.90;;;;;;5002868;28;20060;-57
2022/08/21 07:11:16;;;;;;;9.45;5.40;;;19.70;99.90;;;;;;5004360;28;20061;-55
2022/08/21 07:13:42;;;;;;;10.20;5.32;;;19.90;99.90;;;;;;5004101;28;20164;-56
2022/08/21 07:16:08;;;;;;;19.08;5.60;;;19.60;99.90;;;;;;5003692;28;20045;-57
2022/08/21 07:18:34;;;;;;;11.10;4.70;;;19.10;99.90;;;;;;4986875;28;20050;-57
2022/08/21 07:21:03;;;;;;;11.15;5.00;;;19.40;99.90;;;;;;5005051;28;20034;-56
2022/08/21 07:23:32;;;;;;;10.90;5.00;;;19.40;99.90;;;;;;5003246;28;20417;-56
2022/08/21 07:25:59;;;;;;;8.20;4.80;;;19.30;99.90;;;;;;5003661;28;20121;-57
2022/08/21 07:28:25;;;;;;;9.95;4.45;;;19.40;99.90;;;;;;5004360;28;20053;-56
2022/08/21 07:30:54;;;;;;;11.00;4.93;;;19.50;99.90;;;;;;5003706;28;20421;-57
2022/08/21 07:33:19;;;;;;;10.20;4.50;;;19.50;99.90;;;;;;5003640;28;20121;-56
2022/08/21 07:35:45;;;;;;;10.43;4.32;;;19.60;99.90;;;;;;5003690;28;20120;-56
2022/08/21 07:38:11;;;;;;;9.73;4.13;;;19.80;99.90;;;;;;5003189;28;20117;-57
2022/08/21 07:40:36;;;;;;;9.30;4.35;;;20.00;99.90;;;;;;5002792;28;20045;-59
2022/08/21 07:43:02;;;;;;;10.85;4.25;;;20.40;99.90;;;;;;4986655;28;20045;-55
2022/08/21 07:45:28;;;;;;;8.40;3.47;;;20.10;99.90;;;;;;5003347;28;20132;-57
2022/08/21 07:47:54;;;;;;;9.15;3.45;;;20.10;99.90;;;;;;5003561;28;20038;-56
2022/08/21 07:50:19;;;;;;;6.53;2.85;;;20.30;99.90;;;;;;5002993;28;20050;-57
2022/08/21 07:52:46;;;;;;;6.32;3.30;;;20.40;99.90;;;;;;4984910;28;20240;-57
2022/08/21 07:55:15;;;;;;;7.30;3.90;;;20.30;99.90;;;;;;5003583;28;20057;-57
2022/08/21 07:57:41;;;;;;;10.23;4.03;;;20.20;99.90;;;;;;5002903;28;20128;-57
2022/08/21 08:00:10;;;;;;;9.73;3.35;;;20.20;99.90;;;;;;5003371;28;20177;-57
2022/08/21 08:02:35;;;;;;;6.60;2.38;;;20.50;99.90;;;;;;5003725;28;20396;-57
2022/08/21 08:05:04;;;;;;;11.93;3.30;;;20.60;99.90;;;;;;5002981;28;20042;-57
2022/08/21 08:07:30;;;;;;;7.25;2.70;;;20.60;99.90;;;;;;5002624;28;20046;-56
2022/08/21 08:09:56;;;;;;;8.45;3.70;;;20.80;99.90;;;;;;5002825;28;20049;-56
2022/08/21 08:12:21;;;;;;;9.70;3.20;;;20.90;99.90;;;;;;5003201;28;20058;-56
2022/08/21 08:14:48;;;;;;;8.63;3.28;;;21.00;99.90;;;;;;5002522;28;20062;-56
2022/08/21 08:17:14;;;;;;;9.38;2.90;;;21.30;99.90;;;;;;5003419;28;20041;-56
2022/08/21 08:19:39;;;;;;;10.30;3.20;;;21.30;99.90;;;;;;4993543;28;20397;-57
2022/08/21 08:22:20;;;;;;;8.10;2.88;;;21.00;99.90;;;;;;4982946;28;20042;-58
2022/08/21 08:24:46;;;;;;;7.55;3.00;;;21.10;99.90;;;;;;4965216;28;20181;-56
2022/08/21 08:27:12;;;;;;;6.78;2.72;;;21.00;99.90;;;;;;4983660;28;20574;-55
2022/08/21 08:29:38;;;;;;;8.77;3.03;;;20.90;99.90;;;;;;4982587;28;20056;-55
2022/08/21 08:32:06;;;;;;;8.02;2.92;;;21.00;99.90;;;;;;4983922;28;20134;-55
2022/08/21 08:34:33;;;;;;;6.25;2.28;;;21.20;99.90;;;;;;4983400;28;20468;-57
2022/08/21 08:36:58;;;;;;;10.23;3.60;;;21.10;99.90;;;;;;4982747;28;20050;-55
2022/08/21 08:39:26;;;;;;;10.05;2.90;;;20.90;99.90;;;;;;4982291;28;20516;-56
2022/08/21 08:42:04;;;;;;;7.78;3.03;;;21.30;99.90;;;;;;4983238;28;20046;-56
2022/08/21 08:44:30;;;;;;;8.05;2.80;;;21.50;99.90;;;;;;4982837;28;20043;-56
2022/08/21 08:46:57;;;;;;;7.78;2.97;;;21.30;99.90;;;;;;4982663;28;20058;-54
2022/08/21 08:49:53;;;;;;;8.98;2.60;;;21.30;99.90;;;;;;4983010;28;20038;-57
2022/08/21 08:52:53;;;;;;;6.20;2.45;;;21.70;99.90;;;;;;4977662;28;20138;-57
2022/08/21 08:55:25;;;;;;;7.57;2.42;;;21.60;99.90;;;;;;4969825;28;20137;-57
2022/08/21 08:57:52;;;;;;;7.78;2.55;;;22.20;99.90;;;;;;4982515;28;20078;-57
2022/08/21 09:00:20;;;;;;;10.57;3.00;;;22.20;99.90;;;;;;4965255;28;20109;-55
2022/08/21 09:02:46;;;;;;;8.07;2.97;;;22.30;99.90;;;;;;4982971;28;20397;-56
2022/08/21 09:05:32;;;;;;;9.10;2.90;;;22.50;99.90;;;;;;4965929;28;20057;-56
2022/08/21 09:08:20;;;;;;;6.65;2.80;;;22.30;99.90;;;;;;5000922;28;20061;-57
2022/08/21 09:11:02;;;;;;;8.48;2.10;;;22.10;99.90;;;;;;5002452;28;20049;-55
2022/08/21 09:13:31;;;;;;;10.60;2.80;;;22.30;99.90;;;;;;5002157;28;20483;-55
2022/08/21 09:16:14;;;;;;;8.32;2.60;;;22.50;99.90;;;;;;5001880;28;20054;-57
2022/08/21 09:18:59;;;;;;;11.15;2.90;;;22.50;99.90;;;;;;5002078;28;20041;-57
2022/08/21 09:21:55;;;;;;;7.85;2.08;;;22.40;99.90;;;;;;5002219;28;20045;-55
2022/08/21 09:24:47;;;;;;;8.00;2.47;;;22.50;99.90;;;;;;4983597;28;20045;-57
2022/08/21 09:27:18;;;;;;;8.57;2.60;;;22.40;99.90;;;;;;5002412;28;20046;-56
2022/08/21 09:29:50;;;;;;;6.78;2.00;;;22.70;99.90;;;;;;5001849;28;20546;-56
2022/08/21 09:32:29;;;;;;;8.57;2.42;;;23.00;99.90;;;;;;5001797;28;20049;-56
2022/08/21 09:35:03;;;;;;;8.95;2.30;;;22.30;99.90;;;;;;5002258;28;20054;-56
2022/08/21 09:37:30;;;;;;;7.13;2.03;;;22.50;99.90;;;;;;4983981;28;20096;-56
2022/08/21 09:39:57;;;;;;;10.05;2.47;;;22.30;99.90;;;;;;5001867;28;20050;-55
2022/08/21 09:42:31;;;;;;;7.22;2.03;;;22.60;99.90;;;;;;5002216;28;20053;-54
2022/08/21 09:45:18;;;;;;;5.25;2.10;;;22.80;99.90;;;;;;5001583;28;20482;-54
2022/08/21 09:47:45;;;;;;;9.90;2.17;;;23.00;99.90;;;;;;4984204;28;20053;-55
2022/08/21 09:50:18;;;;;;;7.88;1.92;;;23.00;99.90;;;;;;5001938;28;20505;-55
2022/08/21 09:52:51;;;;;;;6.32;2.17;;;23.20;99.90;;;;;;5001071;28;20429;-55
2022/08/21 09:58:31;;;;;;;5.70;1.80;;;23.30;99.90;;;;;;5002123;28;20052;-56
2022/08/21 10:01:01;;;;;;;6.70;2.20;;;23.70;99.90;;;;;;5001312;28;20069;-55
2022/08/21 10:03:27;;;;;;;9.10;2.00;;;23.60;99.90;;;;;;5001938;28;20042;-56
2022/08/21 10:05:55;;;;;;;5.32;1.70;;;23.60;99.90;;;;;;5005302;28;20048;-55
2022/08/21 10:08:23;;;;;;;6.68;1.77;;;23.70;99.90;;;;;;5004208;28;20052;-56
2022/08/21 10:11:05;;;;;;;7.57;1.95;;;23.70;99.90;;;;;;5005132;28;20038;-56
2022/08/21 10:14:05;;;;;;;5.60;1.63;;;23.70;99.90;;;;;;5005635;28;20488;-55
2022/08/21 10:16:48;;;;;;;7.85;1.90;;;23.70;99.90;;;;;;5005841;28;20054;-55
2022/08/21 10:19:39;;;;;;;6.28;2.03;;;23.90;99.90;;;;;;5004735;28;20505;-55
2022/08/21 10:22:29;;;;;;;6.72;1.75;;;24.10;99.90;;;;;;4995901;28;20053;-57
2022/08/21 10:25:01;;;;;;;8.88;2.17;;;24.10;99.90;;;;;;5005527;28;20057;-55
2022/08/21 10:27:59;;;;;;;6.50;2.10;;;24.00;99.90;;;;;;4987556;28;20149;-57
2022/08/21 10:30:43;;;;;;;6.38;1.73;;;24.30;99.90;;;;;;5005384;28;20049;-55
2022/08/21 10:33:28;;;;;;;5.22;2.03;;;24.40;99.90;;;;;;5005270;28;20049;-55
2022/08/21 10:36:03;;;;;;;3.83;1.45;;;24.60;99.90;;;;;;5005030;28;20060;-55
2022/08/21 10:38:43;;;;;;;6.22;1.85;;;24.10;99.90;;;;;;5004616;28;20046;-57
2022/08/21 10:41:26;;;;;;;5.38;1.80;;;23.70;99.90;;;;;;5004995;28;20046;-55
2022/08/21 10:44:21;;;;;;;6.68;2.13;;;23.80;99.90;;;;;;4971008;28;20180;-55
2022/08/21 10:47:13;;;;;;;7.18;2.05;;;24.10;99.90;;;;;;4995983;28;20057;-55
2022/08/21 10:50:17;;;;;;;4.35;1.63;;;24.50;99.90;;;;;;4993898;28;20049;-57
2022/08/21 10:53:00;;;;;;;6.50;1.97;;;24.90;99.90;;;;;;4988159;28;20053;-56
2022/08/21 10:55:33;;;;;;;5.22;2.00;;;24.50;99.90;;;;;;4985011;28;20550;-55
2022/08/21 10:58:07;;;;;;;5.55;1.65;;;24.60;99.90;;;;;;4984661;28;21045;-56
2022/08/21 11:00:58;;;;;;;5.70;1.63;;;24.80;99.90;;;;;;4984580;28;20096;-56
2022/08/21 11:03:40;;;;;;;5.70;1.65;;;24.80;99.90;;;;;;5001345;28;20147;-55
2022/08/21 11:06:21;;;;;;;6.10;1.75;;;24.50;99.90;;;;;;5003588;28;20527;-57
2022/08/21 11:08:59;;;;;;;6.95;1.63;;;24.80;99.90;;;;;;4996504;28;20120;-56
2022/08/21 11:11:38;;;;;;;5.22;1.60;;;25.40;99.90;;;;;;4985886;28;20046;-57
2022/08/21 11:14:29;;;;;;;3.42;1.23;;;25.40;99.90;;;;;;5004249;28;20082;-56
2022/08/21 11:17:07;;;;;;;7.43;1.60;;;24.50;99.90;;;;;;5003961;28;20133;-56
2022/08/21 11:19:51;;;;;;;5.55;1.60;;;24.60;99.90;;;;;;5004547;28;20137;-57
2022/08/21 11:22:26;;;;;;;5.15;1.45;;;24.40;99.90;;;;;;5003518;28;20042;-57
2022/08/21 11:25:00;;;;;;;5.55;1.83;;;24.70;99.90;;;;;;5003733;28;20536;-56
2022/08/21 11:27:44;;;;;;;8.48;1.60;;;24.80;99.90;;;;;;5003526;28;20376;-56
2022/08/21 11:30:11;;;;;;;3.47;1.10;;;24.90;99.90;;;;;;5003827;28;20433;-56
2022/08/21 11:33:04;;;;;;;4.45;1.33;;;24.60;99.90;;;;;;5003200;28;20050;-58
2022/08/21 11:35:39;;;;;;;6.47;1.42;;;25.00;99.90;;;;;;5003742;28;20491;-57
2022/08/21 11:38:05;;;;;;;5.70;1.50;;;24.90;99.90;;;;;;4984506;28;20500;-57
2022/08/21 11:40:55;;;;;;;3.22;1.30;;;24.40;99.90;;;;;;5005831;28;20040;-57
2022/08/21 11:43:44;;;;;;;6.80;1.70;;;24.40;99.90;;;;;;5023157;28;20052;-56
2022/08/21 11:46:47;;;;;;;8.00;1.85;;;24.40;99.90;;;;;;5023472;28;20038;-56
2022/08/21 11:49:48;;;;;;;7.28;1.58;;;24.50;99.90;;;;;;4991547;28;20053;-57
2022/08/21 11:52:19;;;;;;;5.75;1.52;;;24.60;99.90;;;;;;5022754;28;20107;-56
2022/08/21 11:55:15;;;;;;;3.92;1.40;;;24.30;99.90;;;;;;5022749;28;20053;-55
2022/08/21 11:57:50;;;;;;;4.90;1.58;;;24.10;99.90;;;;;;5005056;28;20057;-55
2022/08/21 12:00:25;;;;;;;6.35;1.58;;;24.00;99.90;;;;;;5022494;28;20162;-56
2022/08/21 12:03:05;;;;;;;5.13;1.52;;;24.10;99.90;;;;;;5022587;28;20041;-55
2022/08/21 12:05:39;;;;;;;6.10;1.50;;;24.00;99.90;;;;;;5019230;28;20042;-56
2022/08/21 12:08:14;;;;;;;3.70;1.42;;;24.00;99.90;;;;;;4998747;28;20666;-59
2022/08/21 12:10:46;;;;;;;4.50;1.30;;;24.00;99.90;;;;;;5008575;28;20041;-56
2022/08/21 12:13:26;;;;;;;4.25;1.20;;;23.80;99.90;;;;;;5021956;28;20060;-55
2022/08/21 12:15:51;;;;;;;5.25;1.50;;;23.80;99.90;;;;;;5004968;28;20419;-56
2022/08/21 12:18:27;;;;;;;6.95;1.60;;;23.80;99.90;;;;;;5017089;28;20134;-55
2022/08/21 12:21:25;;;;;;;4.88;1.75;;;23.90;99.90;;;;;;5002692;28;20058;-56
2022/08/21 12:24:16;;;;;;;5.90;1.52;;;23.70;99.90;;;;;;5000695;28;20058;-56
2022/08/21 12:26:59;;;;;;;6.82;1.90;;;23.60;99.90;;;;;;5001747;28;20056;-57
2022/08/21 12:29:26;;;;;;;8.32;2.00;;;23.50;99.90;;;;;;5002610;28;20840;-56
2022/08/21 12:32:05;;;;;;;4.55;1.55;;;23.30;99.90;;;;;;5002640;28;20056;-56
2022/08/21 12:34:50;;;;;;;6.70;1.83;;;23.20;99.90;;;;;;5002117;28;20081;-57
2022/08/21 12:37:23;;;;;;;6.43;1.60;;;23.10;99.90;;;;;;5002135;28;20049;-56
2022/08/21 12:39:52;;;;;;;5.77;2.10;;;22.90;99.90;;;;;;5002160;28;20045;-56
2022/08/21 12:42:34;;;;;;;6.07;1.98;;;22.80;99.90;;;;;;5018754;28;20061;-56
2022/08/21 12:45:04;;;;;;;5.05;1.90;;;22.60;99.90;;;;;;5022276;28;20045;-56
2022/08/21 12:47:54;;;;;;;5.93;1.90;;;22.60;99.90;;;;;;5022133;28;20071;-56
2022/08/21 12:50:28;;;;;;;5.10;1.90;;;22.70;99.90;;;;;;5022166;28;20447;-56
2022/08/21 12:53:04;;;;;;;8.32;1.60;;;22.90;99.90;;;;;;5020993;28;20629;-56
2022/08/21 12:55:32;;;;;;;6.63;1.98;;;23.20;99.90;;;;;;5022444;28;20049;-56
2022/08/21 12:57:58;;;;;;;5.35;1.50;;;23.70;99.90;;;;;;5021110;28;20048;-56
2022/08/21 13:00:26;;;;;;;7.43;1.75;;;24.10;99.90;;;;;;5021807;28;20048;-58
2022/08/21 13:02:54;;;;;;;6.10;1.60;;;24.10;99.90;;;;;;5021675;28;20121;-56